sensor_id;sensor_type;location;lat;lon;timestamp;P1;durP1;ratioP1;P2;durP2;ratioP2
29238;SDS011;16267;48.194;11.546;2024-01-30T00:01:17;16.67;;;8.38;;
29238;SDS011;16267;48.194;11.546;2024-01-30T00:03:43;20.40;;;7.30;;
29238;SDS011;16267;48.194;11.546;2024-01-30T00:06:08;16.20;;;8.40;;
29238;SDS011;16267;48.194;11.546;2024-01-30T00:08:34;16.73;;;7.30;;
29238;SDS011;16267;48.194;11.546;2024-01-30T00:11:00;19.83;;;8.25;;
29238;SDS011;16267;48.194;11.546;2024-01-30T00:13:26;28.83;;;8.50;;
29238;SDS011;16267;48.194;11.546;2024-01-30T00:15:52;21.35;;;7.32;;
29238;SDS011;16267;48.194;11.546;2024-01-30T00:18:17;17.10;;;7.93;;
29238;SDS011;16267;48.194;11.546;2024-01-30T00:20:44;22.13;;;9.00;;
29238;SDS011;16267;48.194;11.546;2024-01-30T00:23:10;25.45;;;8.57;;
29238;SDS011;16267;48.194;11.546;2024-01-30T00:25:35;16.77;;;8.23;;
29238;SDS011;16267;48.194;11.546;2024-01-30T00:28:01;14.50;;;7.38;;
29238;SDS011;16267;48.194;11.546;2024-01-30T00:30:27;13.70;;;7.53;;
29238;SDS011;16267;48.194;11.546;2024-01-30T00:32:53;20.30;;;8.20;;
29238;SDS011;16267;48.194;11.546;2024-01-30T00:35:19;12.95;;;7.57;;
29238;SDS011;16267;48.194;11.546;2024-01-30T00:37:47;17.85;;;7.53;;
29238;SDS011;16267;48.194;11.546;2024-01-30T00:40:13;19.48;;;7.07;;
29238;SDS011;16267;48.194;11.546;2024-01-30T00:42:43;15.98;;;7.28;;
29238;SDS011;16267;48.194;11.546;2024-01-30T00:45:16;19.45;;;8.20;;
29238;SDS011;16267;48.194;11.546;2024-01-30T00:47:42;18.02;;;8.05;;
29238;SDS011;16267;48.194;11.546;2024-01-30T00:50:08;15.45;;;6.22;;
29238;SDS011;16267;48.194;11.546;2024-01-30T00:52:35;16.55;;;7.13;;
29238;SDS011;16267;48.194;11.546;2024-01-30T00:55:01;20.88;;;7.40;;
29238;SDS011;16267;48.194;11.546;2024-01-30T00:57:27;14.95;;;7.38;;
29238;SDS011;16267;48.194;11.546;2024-01-30T00:59:53;18.25;;;6.85;;
29238;SDS011;16267;48.194;11.546;2024-01-30T01:02:19;17.48;;;7.03;;
29238;SDS011;16267;48.194;11.546;2024-01-30T01:04:45;14.20;;;6.70;;
29238;SDS011;16267;48.194;11.546;2024-01-30T01:07:11;13.82;;;7.32;;
29238;SDS011;16267;48.194;11.546;2024-01-30T01:09:37;14.05;;;6.70;;
29238;SDS011;16267;48.194;11.546;2024-01-30T01:12:03;14.65;;;6.80;;
29238;SDS011;16267;48.194;11.546;2024-01-30T01:14:29;21.45;;;6.63;;
29238;SDS011;16267;48.194;11.546;2024-01-30T01:16:55;13.88;;;7.13;;
29238;SDS011;16267;48.194;11.546;2024-01-30T01:19:21;11.65;;;6.10;;
29238;SDS011;16267;48.194;11.546;2024-01-30T01:21:47;15.98;;;5.28;;
29238;SDS011;16267;48.194;11.546;2024-01-30T01:24:13;16.88;;;6.15;;
29238;SDS011;16267;48.194;11.546;2024-01-30T01:26:38;15.38;;;5.85;;
29238;SDS011;16267;48.194;11.546;2024-01-30T01:29:05;15.15;;;6.18;;
29238;SDS011;16267;48.194;11.546;2024-01-30T01:31:36;10.10;;;5.35;;
29238;SDS011;16267;48.194;11.546;2024-01-30T01:34:12;14.75;;;5.57;;
29238;SDS011;16267;48.194;11.546;2024-01-30T01:36:38;12.57;;;5.45;;
29238;SDS011;16267;48.194;11.546;2024-01-30T01:39:04;11.40;;;5.47;;
29238;SDS011;16267;48.194;11.546;2024-01-30T01:41:33;13.80;;;5.28;;
29238;SDS011;16267;48.194;11.546;2024-01-30T01:43:59;17.13;;;6.15;;
29238;SDS011;16267;48.194;11.546;2024-01-30T01:46:26;11.82;;;5.88;;
29238;SDS011;16267;48.194;11.546;2024-01-30T01:48:55;12.20;;;5.82;;
29238;SDS011;16267;48.194;11.546;2024-01-30T01:51:21;13.05;;;5.72;;
29238;SDS011;16267;48.194;11.546;2024-01-30T01:53:49;14.25;;;5.55;;
29238;SDS011;16267;48.194;11.546;2024-01-30T01:56:16;14.57;;;5.57;;
29238;SDS011;16267;48.194;11.546;2024-01-30T01:58:42;9.23;;;5.20;;
29238;SDS011;16267;48.194;11.546;2024-01-30T02:01:09;12.45;;;5.90;;
29238;SDS011;16267;48.194;11.546;2024-01-30T02:03:36;10.40;;;5.32;;
29238;SDS011;16267;48.194;11.546;2024-01-30T02:06:02;13.05;;;5.97;;
29238;SDS011;16267;48.194;11.546;2024-01-30T02:08:29;17.45;;;6.40;;
29238;SDS011;16267;48.194;11.546;2024-01-30T02:10:55;12.95;;;5.38;;
29238;SDS011;16267;48.194;11.546;2024-01-30T02:13:21;11.23;;;5.38;;
29238;SDS011;16267;48.194;11.546;2024-01-30T02:15:53;11.75;;;6.50;;
29238;SDS011;16267;48.194;11.546;2024-01-30T02:18:19;11.07;;;5.60;;
29238;SDS011;16267;48.194;11.546;2024-01-30T02:20:48;12.13;;;5.35;;
29238;SDS011;16267;48.194;11.546;2024-01-30T02:23:18;16.55;;;6.35;;
29238;SDS011;16267;48.194;11.546;2024-01-30T02:25:45;12.13;;;6.10;;
29238;SDS011;16267;48.194;11.546;2024-01-30T02:28:11;15.77;;;5.68;;
29238;SDS011;16267;48.194;11.546;2024-01-30T02:30:38;10.98;;;5.32;;
29238;SDS011;16267;48.194;11.546;2024-01-30T02:33:05;13.45;;;6.97;;
29238;SDS011;16267;48.194;11.546;2024-01-30T02:35:31;11.13;;;5.38;;
29238;SDS011;16267;48.194;11.546;2024-01-30T02:37:57;12.60;;;5.63;;
29238;SDS011;16267;48.194;11.546;2024-01-30T02:40:22;13.77;;;5.07;;
29238;SDS011;16267;48.194;11.546;2024-01-30T02:42:48;10.48;;;5.47;;
29238;SDS011;16267;48.194;11.546;2024-01-30T02:45:14;11.80;;;5.00;;
29238;SDS011;16267;48.194;11.546;2024-01-30T02:47:40;8.85;;;4.97;;
29238;SDS011;16267;48.194;11.546;2024-01-30T02:50:06;12.82;;;5.93;;
29238;SDS011;16267;48.194;11.546;2024-01-30T02:52:32;9.40;;;4.95;;
29238;SDS011;16267;48.194;11.546;2024-01-30T02:54:57;10.85;;;5.30;;
29238;SDS011;16267;48.194;11.546;2024-01-30T02:57:23;11.63;;;5.55;;
29238;SDS011;16267;48.194;11.546;2024-01-30T02:59:49;9.45;;;4.70;;
29238;SDS011;16267;48.194;11.546;2024-01-30T03:02:15;17.38;;;5.80;;
29238;SDS011;16267;48.194;11.546;2024-01-30T03:04:41;10.82;;;4.85;;
29238;SDS011;16267;48.194;11.546;2024-01-30T03:07:07;14.73;;;5.43;;
29238;SDS011;16267;48.194;11.546;2024-01-30T03:09:33;13.13;;;4.85;;
29238;SDS011;16267;48.194;11.546;2024-01-30T03:11:59;8.20;;;4.35;;
29238;SDS011;16267;48.194;11.546;2024-01-30T03:14:25;14.07;;;5.60;;
29238;SDS011;16267;48.194;11.546;2024-01-30T03:16:51;11.48;;;4.80;;
29238;SDS011;16267;48.194;11.546;2024-01-30T03:19:17;12.85;;;4.85;;
29238;SDS011;16267;48.194;11.546;2024-01-30T03:21:43;16.23;;;5.57;;
29238;SDS011;16267;48.194;11.546;2024-01-30T03:24:10;10.27;;;5.40;;
29238;SDS011;16267;48.194;11.546;2024-01-30T03:26:36;9.45;;;4.60;;
29238;SDS011;16267;48.194;11.546;2024-01-30T03:29:01;10.40;;;4.35;;
29238;SDS011;16267;48.194;11.546;2024-01-30T03:31:27;9.68;;;4.53;;
29238;SDS011;16267;48.194;11.546;2024-01-30T03:33:53;13.30;;;5.20;;
29238;SDS011;16267;48.194;11.546;2024-01-30T03:36:19;9.90;;;4.63;;
29238;SDS011;16267;48.194;11.546;2024-01-30T03:38:45;12.63;;;4.78;;
29238;SDS011;16267;48.194;11.546;2024-01-30T03:41:11;13.43;;;4.50;;
29238;SDS011;16267;48.194;11.546;2024-01-30T03:43:36;16.13;;;5.15;;
29238;SDS011;16267;48.194;11.546;2024-01-30T03:46:02;10.43;;;4.82;;
29238;SDS011;16267;48.194;11.546;2024-01-30T03:48:29;9.50;;;5.20;;
29238;SDS011;16267;48.194;11.546;2024-01-30T03:50:55;12.18;;;4.50;;
29238;SDS011;16267;48.194;11.546;2024-01-30T03:53:21;9.77;;;5.53;;
29238;SDS011;16267;48.194;11.546;2024-01-30T03:55:47;11.05;;;4.85;;
29238;SDS011;16267;48.194;11.546;2024-01-30T03:58:13;8.93;;;5.15;;
29238;SDS011;16267;48.194;11.546;2024-01-30T04:00:38;12.00;;;4.85;;
29238;SDS011;16267;48.194;11.546;2024-01-30T04:03:05;8.52;;;3.92;;
29238;SDS011;16267;48.194;11.546;2024-01-30T04:05:32;10.50;;;4.50;;
29238;SDS011;16267;48.194;11.546;2024-01-30T04:07:58;13.63;;;4.53;;
29238;SDS011;16267;48.194;11.546;2024-01-30T04:10:24;10.60;;;4.60;;
29238;SDS011;16267;48.194;11.546;2024-01-30T04:12:50;13.20;;;4.32;;
29238;SDS011;16267;48.194;11.546;2024-01-30T04:15:19;10.18;;;3.72;;
29238;SDS011;16267;48.194;11.546;2024-01-30T04:17:45;8.98;;;4.10;;
29238;SDS011;16267;48.194;11.546;2024-01-30T04:20:17;9.45;;;4.60;;
29238;SDS011;16267;48.194;11.546;2024-01-30T04:22:43;4.47;;;2.45;;
29238;SDS011;16267;48.194;11.546;2024-01-30T04:25:10;11.07;;;4.80;;
29238;SDS011;16267;48.194;11.546;2024-01-30T04:27:36;9.70;;;4.00;;
29238;SDS011;16267;48.194;11.546;2024-01-30T04:30:02;9.10;;;4.28;;
29238;SDS011;16267;48.194;11.546;2024-01-30T04:32:29;10.57;;;4.63;;
29238;SDS011;16267;48.194;11.546;2024-01-30T04:34:54;11.02;;;4.65;;
29238;SDS011;16267;48.194;11.546;2024-01-30T04:37:20;9.30;;;3.83;;
29238;SDS011;16267;48.194;11.546;2024-01-30T04:39:46;8.30;;;3.75;;
29238;SDS011;16267;48.194;11.546;2024-01-30T04:42:12;10.27;;;4.15;;
29238;SDS011;16267;48.194;11.546;2024-01-30T04:44:38;8.10;;;3.83;;
29238;SDS011;16267;48.194;11.546;2024-01-30T04:47:04;10.27;;;4.32;;
29238;SDS011;16267;48.194;11.546;2024-01-30T04:49:31;9.52;;;3.60;;
29238;SDS011;16267;48.194;11.546;2024-01-30T04:51:57;15.50;;;4.55;;
29238;SDS011;16267;48.194;11.546;2024-01-30T04:54:23;8.57;;;3.72;;
29238;SDS011;16267;48.194;11.546;2024-01-30T04:56:49;6.88;;;3.72;;
29238;SDS011;16267;48.194;11.546;2024-01-30T04:59:15;10.32;;;3.88;;
29238;SDS011;16267;48.194;11.546;2024-01-30T05:01:40;9.15;;;3.25;;
29238;SDS011;16267;48.194;11.546;2024-01-30T05:04:09;7.57;;;4.07;;
29238;SDS011;16267;48.194;11.546;2024-01-30T05:06:36;13.07;;;3.45;;
29238;SDS011;16267;48.194;11.546;2024-01-30T05:09:02;10.18;;;4.22;;
29238;SDS011;16267;48.194;11.546;2024-01-30T05:11:31;9.55;;;3.67;;
29238;SDS011;16267;48.194;11.546;2024-01-30T05:14:05;9.95;;;3.92;;
29238;SDS011;16267;48.194;11.546;2024-01-30T05:16:31;6.03;;;3.80;;
29238;SDS011;16267;48.194;11.546;2024-01-30T05:18:57;9.07;;;4.05;;
29238;SDS011;16267;48.194;11.546;2024-01-30T05:21:24;8.75;;;3.95;;
29238;SDS011;16267;48.194;11.546;2024-01-30T05:23:50;13.02;;;3.53;;
29238;SDS011;16267;48.194;11.546;2024-01-30T05:26:16;6.75;;;3.97;;
29238;SDS011;16267;48.194;11.546;2024-01-30T05:28:42;6.88;;;3.63;;
29238;SDS011;16267;48.194;11.546;2024-01-30T05:31:11;10.93;;;3.50;;
29238;SDS011;16267;48.194;11.546;2024-01-30T05:33:37;7.43;;;3.65;;
29238;SDS011;16267;48.194;11.546;2024-01-30T05:36:03;8.50;;;3.75;;
29238;SDS011;16267;48.194;11.546;2024-01-30T05:38:29;7.90;;;3.65;;
29238;SDS011;16267;48.194;11.546;2024-01-30T05:40:58;8.15;;;3.55;;
29238;SDS011;16267;48.194;11.546;2024-01-30T05:43:24;6.45;;;3.03;;
29238;SDS011;16267;48.194;11.546;2024-01-30T05:45:50;7.45;;;3.40;;
29238;SDS011;16267;48.194;11.546;2024-01-30T05:48:17;14.95;;;4.03;;
29238;SDS011;16267;48.194;11.546;2024-01-30T05:50:43;6.07;;;3.78;;
29238;SDS011;16267;48.194;11.546;2024-01-30T05:53:10;13.52;;;4.07;;
29238;SDS011;16267;48.194;11.546;2024-01-30T05:55:36;8.50;;;3.80;;
29238;SDS011;16267;48.194;11.546;2024-01-30T05:58:02;7.82;;;3.63;;
29238;SDS011;16267;48.194;11.546;2024-01-30T06:00:29;6.75;;;3.67;;
29238;SDS011;16267;48.194;11.546;2024-01-30T06:02:55;5.50;;;3.15;;
29238;SDS011;16267;48.194;11.546;2024-01-30T06:05:20;6.43;;;3.17;;
29238;SDS011;16267;48.194;11.546;2024-01-30T06:07:46;9.07;;;3.67;;
29238;SDS011;16267;48.194;11.546;2024-01-30T06:10:12;10.60;;;3.08;;
29238;SDS011;16267;48.194;11.546;2024-01-30T06:12:37;4.82;;;2.90;;
29238;SDS011;16267;48.194;11.546;2024-01-30T06:15:03;11.93;;;3.72;;
29238;SDS011;16267;48.194;11.546;2024-01-30T06:17:30;10.35;;;2.90;;
29238;SDS011;16267;48.194;11.546;2024-01-30T06:19:56;4.07;;;2.17;;
29238;SDS011;16267;48.194;11.546;2024-01-30T06:22:21;12.88;;;3.40;;
29238;SDS011;16267;48.194;11.546;2024-01-30T06:24:47;5.85;;;2.58;;
29238;SDS011;16267;48.194;11.546;2024-01-30T06:27:13;9.40;;;3.15;;
29238;SDS011;16267;48.194;11.546;2024-01-30T06:29:40;8.88;;;3.58;;
29238;SDS011;16267;48.194;11.546;2024-01-30T06:32:08;8.98;;;3.88;;
29238;SDS011;16267;48.194;11.546;2024-01-30T06:34:34;7.28;;;3.25;;
29238;SDS011;16267;48.194;11.546;2024-01-30T06:37:00;5.63;;;2.95;;
29238;SDS011;16267;48.194;11.546;2024-01-30T06:39:26;10.25;;;3.72;;
29238;SDS011;16267;48.194;11.546;2024-01-30T06:41:52;8.57;;;2.97;;
29238;SDS011;16267;48.194;11.546;2024-01-30T06:44:18;5.72;;;3.05;;
29238;SDS011;16267;48.194;11.546;2024-01-30T06:46:43;8.18;;;3.00;;
29238;SDS011;16267;48.194;11.546;2024-01-30T06:49:09;7.03;;;3.15;;
29238;SDS011;16267;48.194;11.546;2024-01-30T06:51:35;5.32;;;2.83;;
29238;SDS011;16267;48.194;11.546;2024-01-30T06:54:01;10.90;;;4.18;;
29238;SDS011;16267;48.194;11.546;2024-01-30T06:56:26;8.27;;;3.72;;
29238;SDS011;16267;48.194;11.546;2024-01-30T06:58:53;11.55;;;4.50;;
29238;SDS011;16267;48.194;11.546;2024-01-30T07:01:18;5.68;;;2.90;;
29238;SDS011;16267;48.194;11.546;2024-01-30T07:03:44;11.20;;;3.55;;
29238;SDS011;16267;48.194;11.546;2024-01-30T07:06:11;6.18;;;3.17;;
29238;SDS011;16267;48.194;11.546;2024-01-30T07:08:37;6.10;;;3.00;;
29238;SDS011;16267;48.194;11.546;2024-01-30T07:11:05;4.25;;;2.80;;
29238;SDS011;16267;48.194;11.546;2024-01-30T07:13:35;6.80;;;3.00;;
29238;SDS011;16267;48.194;11.546;2024-01-30T07:16:01;3.88;;;2.63;;
29238;SDS011;16267;48.194;11.546;2024-01-30T07:18:27;8.15;;;3.65;;
29238;SDS011;16267;48.194;11.546;2024-01-30T07:20:52;7.38;;;3.63;;
29238;SDS011;16267;48.194;11.546;2024-01-30T07:23:18;6.38;;;3.17;;
29238;SDS011;16267;48.194;11.546;2024-01-30T07:25:44;6.80;;;3.15;;
29238;SDS011;16267;48.194;11.546;2024-01-30T07:28:10;8.73;;;3.72;;
29238;SDS011;16267;48.194;11.546;2024-01-30T07:30:37;8.15;;;3.53;;
29238;SDS011;16267;48.194;11.546;2024-01-30T07:33:03;5.25;;;2.67;;
29238;SDS011;16267;48.194;11.546;2024-01-30T07:35:29;6.82;;;3.50;;
29238;SDS011;16267;48.194;11.546;2024-01-30T07:37:55;9.48;;;3.03;;
29238;SDS011;16267;48.194;11.546;2024-01-30T07:40:22;7.55;;;3.15;;
29238;SDS011;16267;48.194;11.546;2024-01-30T07:42:48;6.32;;;3.13;;
29238;SDS011;16267;48.194;11.546;2024-01-30T07:45:14;6.15;;;3.53;;
29238;SDS011;16267;48.194;11.546;2024-01-30T07:47:40;9.73;;;3.08;;
29238;SDS011;16267;48.194;11.546;2024-01-30T07:50:07;7.45;;;3.47;;
29238;SDS011;16267;48.194;11.546;2024-01-30T07:52:34;12.85;;;2.70;;
29238;SDS011;16267;48.194;11.546;2024-01-30T07:55:00;7.05;;;3.17;;
29238;SDS011;16267;48.194;11.546;2024-01-30T07:57:25;10.13;;;3.85;;
29238;SDS011;16267;48.194;11.546;2024-01-30T07:59:51;8.73;;;4.25;;
29238;SDS011;16267;48.194;11.546;2024-01-30T08:04:45;7.63;;;3.35;;
29238;SDS011;16267;48.194;11.546;2024-01-30T08:07:13;5.35;;;2.97;;
29238;SDS011;16267;48.194;11.546;2024-01-30T08:09:39;4.30;;;2.60;;
29238;SDS011;16267;48.194;11.546;2024-01-30T08:12:05;6.97;;;2.80;;
29238;SDS011;16267;48.194;11.546;2024-01-30T08:14:31;10.10;;;3.58;;
29238;SDS011;16267;48.194;11.546;2024-01-30T08:16:57;16.85;;;4.50;;
29238;SDS011;16267;48.194;11.546;2024-01-30T08:19:24;7.03;;;3.58;;
29238;SDS011;16267;48.194;11.546;2024-01-30T08:21:49;10.05;;;3.72;;
29238;SDS011;16267;48.194;11.546;2024-01-30T08:24:16;8.95;;;3.83;;
29238;SDS011;16267;48.194;11.546;2024-01-30T08:26:43;9.20;;;3.60;;
29238;SDS011;16267;48.194;11.546;2024-01-30T08:29:10;13.10;;;5.35;;
29238;SDS011;16267;48.194;11.546;2024-01-30T08:31:35;9.68;;;4.65;;
29238;SDS011;16267;48.194;11.546;2024-01-30T08:34:01;21.67;;;5.10;;
29238;SDS011;16267;48.194;11.546;2024-01-30T08:36:27;11.35;;;4.90;;
29238;SDS011;16267;48.194;11.546;2024-01-30T08:38:53;16.23;;;5.05;;
29238;SDS011;16267;48.194;11.546;2024-01-30T08:41:18;14.60;;;5.35;;
29238;SDS011;16267;48.194;11.546;2024-01-30T08:43:44;12.73;;;5.82;;
29238;SDS011;16267;48.194;11.546;2024-01-30T08:46:10;15.48;;;5.50;;
29238;SDS011;16267;48.194;11.546;2024-01-30T08:48:36;16.00;;;6.80;;
29238;SDS011;16267;48.194;11.546;2024-01-30T08:51:02;14.27;;;5.95;;
29238;SDS011;16267;48.194;11.546;2024-01-30T08:53:28;18.90;;;5.70;;
29238;SDS011;16267;48.194;11.546;2024-01-30T08:55:54;10.82;;;5.97;;
29238;SDS011;16267;48.194;11.546;2024-01-30T08:58:20;12.57;;;6.60;;
29238;SDS011;16267;48.194;11.546;2024-01-30T09:00:46;11.63;;;5.88;;
29238;SDS011;16267;48.194;11.546;2024-01-30T09:03:12;11.98;;;5.18;;
29238;SDS011;16267;48.194;11.546;2024-01-30T09:05:38;9.52;;;5.03;;
29238;SDS011;16267;48.194;11.546;2024-01-30T09:08:04;15.90;;;5.25;;
29238;SDS011;16267;48.194;11.546;2024-01-30T09:10:30;11.82;;;4.78;;
29238;SDS011;16267;48.194;11.546;2024-01-30T09:12:56;8.25;;;4.50;;
29238;SDS011;16267;48.194;11.546;2024-01-30T09:15:21;12.63;;;5.15;;
29238;SDS011;16267;48.194;11.546;2024-01-30T09:17:47;13.50;;;4.25;;
29238;SDS011;16267;48.194;11.546;2024-01-30T09:20:13;12.32;;;3.75;;
29238;SDS011;16267;48.194;11.546;2024-01-30T09:22:38;9.13;;;4.32;;
29238;SDS011;16267;48.194;11.546;2024-01-30T09:25:06;10.80;;;3.72;;
29238;SDS011;16267;48.194;11.546;2024-01-30T09:27:32;11.20;;;3.97;;
29238;SDS011;16267;48.194;11.546;2024-01-30T09:29:58;8.95;;;4.28;;
29238;SDS011;16267;48.194;11.546;2024-01-30T09:32:25;7.90;;;4.20;;
29238;SDS011;16267;48.194;11.546;2024-01-30T09:34:51;6.80;;;3.63;;
29238;SDS011;16267;48.194;11.546;2024-01-30T09:37:23;7.70;;;3.72;;
29238;SDS011;16267;48.194;11.546;2024-01-30T09:39:49;14.38;;;4.10;;
29238;SDS011;16267;48.194;11.546;2024-01-30T09:42:34;11.55;;;4.47;;
29238;SDS011;16267;48.194;11.546;2024-01-30T09:45:01;7.88;;;3.83;;
29238;SDS011;16267;48.194;11.546;2024-01-30T09:47:31;10.40;;;4.03;;
29238;SDS011;16267;48.194;11.546;2024-01-30T09:50:20;5.20;;;3.40;;
29238;SDS011;16267;48.194;11.546;2024-01-30T09:52:46;7.68;;;3.95;;
29238;SDS011;16267;48.194;11.546;2024-01-30T09:55:12;8.80;;;3.72;;
29238;SDS011;16267;48.194;11.546;2024-01-30T09:57:39;8.43;;;3.83;;
29238;SDS011;16267;48.194;11.546;2024-01-30T10:00:06;6.32;;;3.42;;
29238;SDS011;16267;48.194;11.546;2024-01-30T10:02:34;13.23;;;3.63;;
29238;SDS011;16267;48.194;11.546;2024-01-30T10:05:00;9.27;;;4.13;;
29238;SDS011;16267;48.194;11.546;2024-01-30T10:07:27;7.75;;;3.65;;
29238;SDS011;16267;48.194;11.546;2024-01-30T10:09:53;10.00;;;3.83;;
29238;SDS011;16267;48.194;11.546;2024-01-30T10:12:21;16.65;;;3.30;;
29238;SDS011;16267;48.194;11.546;2024-01-30T10:14:47;9.07;;;3.58;;
29238;SDS011;16267;48.194;11.546;2024-01-30T10:17:13;8.70;;;4.07;;
29238;SDS011;16267;48.194;11.546;2024-01-30T10:19:39;6.40;;;3.35;;
29238;SDS011;16267;48.194;11.546;2024-01-30T10:22:06;11.63;;;3.50;;
29238;SDS011;16267;48.194;11.546;2024-01-30T10:24:36;6.40;;;3.28;;
29238;SDS011;16267;48.194;11.546;2024-01-30T10:27:02;13.40;;;4.10;;
29238;SDS011;16267;48.194;11.546;2024-01-30T10:29:28;8.48;;;3.47;;
29238;SDS011;16267;48.194;11.546;2024-01-30T10:32:00;12.35;;;3.88;;
29238;SDS011;16267;48.194;11.546;2024-01-30T10:34:27;6.78;;;3.40;;
29238;SDS011;16267;48.194;11.546;2024-01-30T10:37:07;11.23;;;3.08;;
29238;SDS011;16267;48.194;11.546;2024-01-30T10:39:41;5.90;;;3.03;;
29238;SDS011;16267;48.194;11.546;2024-01-30T10:42:13;7.80;;;3.33;;
29238;SDS011;16267;48.194;11.546;2024-01-30T10:47:39;10.43;;;2.83;;
29238;SDS011;16267;48.194;11.546;2024-01-30T10:50:09;9.70;;;2.53;;
29238;SDS011;16267;48.194;11.546;2024-01-30T10:52:35;5.38;;;2.80;;
29238;SDS011;16267;48.194;11.546;2024-01-30T10:55:01;5.07;;;2.45;;
29238;SDS011;16267;48.194;11.546;2024-01-30T10:57:33;5.85;;;2.20;;
29238;SDS011;16267;48.194;11.546;2024-01-30T11:00:10;6.22;;;2.08;;
29238;SDS011;16267;48.194;11.546;2024-01-30T11:02:41;9.70;;;2.35;;
29238;SDS011;16267;48.194;11.546;2024-01-30T11:05:09;2.33;;;1.58;;
29238;SDS011;16267;48.194;11.546;2024-01-30T11:07:38;4.70;;;1.60;;
29238;SDS011;16267;48.194;11.546;2024-01-30T11:10:06;2.58;;;1.58;;
29238;SDS011;16267;48.194;11.546;2024-01-30T11:12:37;2.67;;;1.52;;
29238;SDS011;16267;48.194;11.546;2024-01-30T11:15:15;4.32;;;2.22;;
29238;SDS011;16267;48.194;11.546;2024-01-30T11:17:49;6.28;;;2.10;;
29238;SDS011;16267;48.194;11.546;2024-01-30T11:22:46;3.60;;;1.25;;
29238;SDS011;16267;48.194;11.546;2024-01-30T11:25:16;3.20;;;1.67;;
29238;SDS011;16267;48.194;11.546;2024-01-30T11:27:45;2.22;;;1.65;;
29238;SDS011;16267;48.194;11.546;2024-01-30T11:30:21;4.18;;;1.83;;
29238;SDS011;16267;48.194;11.546;2024-01-30T11:33:02;4.03;;;1.67;;
29238;SDS011;16267;48.194;11.546;2024-01-30T11:35:39;6.85;;;1.90;;
29238;SDS011;16267;48.194;11.546;2024-01-30T11:38:10;2.20;;;1.30;;
29238;SDS011;16267;48.194;11.546;2024-01-30T11:40:38;2.35;;;1.30;;
29238;SDS011;16267;48.194;11.546;2024-01-30T11:43:08;3.75;;;1.60;;
29238;SDS011;16267;48.194;11.546;2024-01-30T11:45:35;3.53;;;1.90;;
29238;SDS011;16267;48.194;11.546;2024-01-30T11:48:02;2.35;;;1.38;;
29238;SDS011;16267;48.194;11.546;2024-01-30T11:50:35;3.22;;;1.27;;
29238;SDS011;16267;48.194;11.546;2024-01-30T11:53:03;3.67;;;1.33;;
29238;SDS011;16267;48.194;11.546;2024-01-30T11:55:30;3.63;;;1.52;;
29238;SDS011;16267;48.194;11.546;2024-01-30T11:57:56;3.67;;;1.55;;
29238;SDS011;16267;48.194;11.546;2024-01-30T12:00:23;7.40;;;1.13;;
29238;SDS011;16267;48.194;11.546;2024-01-30T12:02:50;2.17;;;1.27;;
29238;SDS011;16267;48.194;11.546;2024-01-30T12:05:20;4.35;;;1.17;;
29238;SDS011;16267;48.194;11.546;2024-01-30T12:07:50;2.88;;;1.20;;
29238;SDS011;16267;48.194;11.546;2024-01-30T12:10:16;1.58;;;1.10;;
29238;SDS011;16267;48.194;11.546;2024-01-30T12:12:46;3.67;;;1.58;;
29238;SDS011;16267;48.194;11.546;2024-01-30T12:15:15;6.55;;;1.30;;
29238;SDS011;16267;48.194;11.546;2024-01-30T12:17:41;2.92;;;1.13;;
29238;SDS011;16267;48.194;11.546;2024-01-30T12:22:43;3.10;;;1.45;;
29238;SDS011;16267;48.194;11.546;2024-01-30T12:25:15;3.47;;;1.42;;
29238;SDS011;16267;48.194;11.546;2024-01-30T12:27:43;3.72;;;1.35;;
29238;SDS011;16267;48.194;11.546;2024-01-30T12:30:17;2.08;;;1.10;;
29238;SDS011;16267;48.194;11.546;2024-01-30T12:32:46;2.40;;;1.50;;
29238;SDS011;16267;48.194;11.546;2024-01-30T12:35:18;3.53;;;1.48;;
29238;SDS011;16267;48.194;11.546;2024-01-30T12:37:45;4.80;;;1.58;;
29238;SDS011;16267;48.194;11.546;2024-01-30T12:40:15;4.13;;;1.30;;
29238;SDS011;16267;48.194;11.546;2024-01-30T12:42:42;3.25;;;1.40;;
29238;SDS011;16267;48.194;11.546;2024-01-30T12:45:13;2.35;;;1.25;;
29238;SDS011;16267;48.194;11.546;2024-01-30T12:47:46;6.55;;;1.25;;
29238;SDS011;16267;48.194;11.546;2024-01-30T12:50:13;2.10;;;1.00;;
29238;SDS011;16267;48.194;11.546;2024-01-30T12:52:41;2.15;;;0.90;;
29238;SDS011;16267;48.194;11.546;2024-01-30T12:55:08;8.48;;;1.30;;
29238;SDS011;16267;48.194;11.546;2024-01-30T12:57:33;4.00;;;1.40;;
29238;SDS011;16267;48.194;11.546;2024-01-30T12:59:59;1.83;;;1.00;;
29238;SDS011;16267;48.194;11.546;2024-01-30T13:02:25;5.90;;;1.27;;
29238;SDS011;16267;48.194;11.546;2024-01-30T13:04:55;1.98;;;1.25;;
29238;SDS011;16267;48.194;11.546;2024-01-30T13:07:20;6.15;;;1.65;;
29238;SDS011;16267;48.194;11.546;2024-01-30T13:09:46;2.95;;;1.38;;
29238;SDS011;16267;48.194;11.546;2024-01-30T13:12:12;2.53;;;1.20;;
29238;SDS011;16267;48.194;11.546;2024-01-30T13:14:38;11.68;;;1.98;;
29238;SDS011;16267;48.194;11.546;2024-01-30T13:17:04;4.00;;;1.20;;
29238;SDS011;16267;48.194;11.546;2024-01-30T13:19:29;3.72;;;1.20;;
29238;SDS011;16267;48.194;11.546;2024-01-30T13:21:57;3.72;;;1.75;;
29238;SDS011;16267;48.194;11.546;2024-01-30T13:24:23;3.70;;;1.30;;
29238;SDS011;16267;48.194;11.546;2024-01-30T13:26:49;5.65;;;1.60;;
29238;SDS011;16267;48.194;11.546;2024-01-30T13:29:18;4.15;;;1.70;;
29238;SDS011;16267;48.194;11.546;2024-01-30T13:31:44;5.75;;;1.83;;
29238;SDS011;16267;48.194;11.546;2024-01-30T13:34:11;6.72;;;2.30;;
29238;SDS011;16267;48.194;11.546;2024-01-30T13:36:37;2.55;;;1.55;;
29238;SDS011;16267;48.194;11.546;2024-01-30T13:39:03;3.78;;;1.75;;
29238;SDS011;16267;48.194;11.546;2024-01-30T13:41:32;12.30;;;1.88;;
29238;SDS011;16267;48.194;11.546;2024-01-30T13:43:58;2.92;;;1.42;;
29238;SDS011;16267;48.194;11.546;2024-01-30T13:46:24;7.55;;;1.60;;
29238;SDS011;16267;48.194;11.546;2024-01-30T13:48:50;4.72;;;2.10;;
29238;SDS011;16267;48.194;11.546;2024-01-30T13:51:16;3.20;;;1.45;;
29238;SDS011;16267;48.194;11.546;2024-01-30T13:53:51;7.88;;;1.45;;
29238;SDS011;16267;48.194;11.546;2024-01-30T13:56:17;4.60;;;1.63;;
29238;SDS011;16267;48.194;11.546;2024-01-30T13:58:45;6.07;;;1.42;;
29238;SDS011;16267;48.194;11.546;2024-01-30T14:01:10;3.28;;;1.83;;
29238;SDS011;16267;48.194;11.546;2024-01-30T14:03:36;4.82;;;1.92;;
29238;SDS011;16267;48.194;11.546;2024-01-30T14:06:02;5.22;;;1.42;;
29238;SDS011;16267;48.194;11.546;2024-01-30T14:08:28;3.80;;;1.60;;
29238;SDS011;16267;48.194;11.546;2024-01-30T14:10:54;6.80;;;1.60;;
29238;SDS011;16267;48.194;11.546;2024-01-30T14:13:21;3.28;;;1.83;;
29238;SDS011;16267;48.194;11.546;2024-01-30T14:15:47;3.08;;;1.48;;
29238;SDS011;16267;48.194;11.546;2024-01-30T14:18:14;9.10;;;1.83;;
29238;SDS011;16267;48.194;11.546;2024-01-30T14:20:40;2.97;;;1.33;;
29238;SDS011;16267;48.194;11.546;2024-01-30T14:23:06;5.05;;;1.98;;
29238;SDS011;16267;48.194;11.546;2024-01-30T14:25:32;4.43;;;1.73;;
29238;SDS011;16267;48.194;11.546;2024-01-30T14:27:58;4.63;;;1.77;;
29238;SDS011;16267;48.194;11.546;2024-01-30T14:30:23;15.70;;;1.60;;
29238;SDS011;16267;48.194;11.546;2024-01-30T14:32:50;4.93;;;1.75;;
29238;SDS011;16267;48.194;11.546;2024-01-30T14:35:16;4.00;;;1.90;;
29238;SDS011;16267;48.194;11.546;2024-01-30T14:37:44;5.85;;;2.03;;